Port-of-Spain, Trinidad and Tobago
Current Conditions -  °F | °C
As of 11:00 AM on Friday 19 Dec 2014 (Local Time) from TTPP Reporting Station
Few Clouds Few Clouds  
Wind Chill: 88°   Ceiling: Unl
Heat Index: 94°   Visibility: 6mi
Dew Point: 72°   Wind: 7mph
Humidity: 58%   Direction: 100°E
Pressure: 29.91"   Gusts: NA
Location:  10.66°N, 61.51°W
Report Text: TTPP 191500Z 10006KT 9999 FEW016 31/22 Q1013 NOSIG
Loading
Personal Weather Stations






























Interactive Weather Map New forecast layout! Learn more

10-Day Weather Forecast

Advertisements
Track Severe Weather on mobile